Time;durP1;ratioP1;P1;durP2;ratioP2;P2;SDS_P1;SDS_P2;PMS_P1;PMS_P2;Temp;Humidity;BMP_temperature;BMP_pressure;BME280_temperature;BME280_humidity;BME280_pressure;Samples;Min_cycle;Max_cycle;Signal;HPM_P1;HPM_P2
2021/11/13 00:01:14;;;;;;;;;;;;;;;9.14;95.48;100678.02;1638038;87;20135;-77
2021/11/13 00:03:40;;;;;;;;;;;;;;;9.12;95.46;100679.92;1630486;86;20312;-78
2021/11/13 00:06:06;;;;;;;;;;;;;;;9.13;95.56;100681.61;1635948;86;20459;-77
2021/11/13 00:08:31;;;;;;;;;;;;;;;9.14;95.72;100679.33;1635495;86;21190;-78
2021/11/13 00:10:57;;;;;;;;;;;;;;;9.11;95.92;100691.45;1637948;86;20149;-77
2021/11/13 00:13:24;;;;;;;;;;;;;;;9.14;95.85;100680.65;1635069;86;20154;-77
2021/11/13 00:15:50;;;;;;;;;;;;;;;9.22;95.73;100679.48;1636048;87;20487;-77
2021/11/13 00:18:15;;;;;;;;;;;;;;;9.18;95.72;100674.13;1634253;86;20201;-77
2021/11/13 00:20:41;;;;;;;;;;;;;;;9.16;95.93;100678.70;1632564;86;21203;-77
2021/11/13 00:23:07;;;;;;;;;;;;;;;9.15;96.18;100674.39;1639041;86;20276;-77
2021/11/13 00:25:32;;;;;;;;;;;;;;;9.11;96.43;100673.02;1630964;87;20516;-77
2021/11/13 00:27:58;;;;;;;;;;;;;;;9.15;96.23;100673.08;1634885;86;20134;-77
2021/11/13 00:30:23;;;;;;;;;;;;;;;9.21;95.94;100671.22;1638262;86;20251;-77
2021/11/13 00:32:49;;;;;;;;;;;;;;;9.14;96.01;100675.38;1637543;86;21150;-77
2021/11/13 00:35:15;;;;;;;;;;;;;;;9.14;96.20;100675.38;1636897;86;20206;-78
2021/11/13 00:37:40;;;;;;;;;;;;;;;9.15;96.25;100678.34;1633039;86;20182;-77
2021/11/13 00:40:06;;;;;;;;;;;;;;;9.19;96.37;100670.53;1633057;86;20873;-77
2021/11/13 00:42:32;;;;;;;;;;;;;;;9.20;96.08;100672.21;1631946;86;20181;-78
2021/11/13 00:44:57;;;;;;;;;;;;;;;9.13;96.42;100671.06;1634295;86;21196;-77
2021/11/13 00:47:23;;;;;;;;;;;;;;;9.05;96.54;100670.91;1635571;86;20767;-77
2021/11/13 00:49:49;;;;;;;;;;;;;;;9.05;96.37;100669.09;1634532;86;20144;-77
2021/11/13 00:52:15;;;;;;;;;;;;;;;9.13;96.53;100669.75;1635200;86;20691;-77
2021/11/13 00:54:40;;;;;;;;;;;;;;;9.10;96.66;100672.65;1634048;86;20628;-79
2021/11/13 00:57:10;;;;;;;;;;;;;;;8.98;96.90;100667.48;1633361;86;21161;-78
2021/11/13 00:59:35;;;;;;;;;;;;;;;9.05;96.82;100666.95;1633459;87;20197;-78
2021/11/13 01:02:00;;;;;;;;;;;;;;;9.08;96.71;100671.96;1629595;86;21056;-77
2021/11/13 01:04:26;;;;;;;;;;;;;;;9.10;96.57;100671.33;1634369;86;20125;-77
2021/11/13 01:06:51;;;;;;;;;;;;;;;9.15;96.42;100670.44;1634850;87;20168;-77
2021/11/13 01:09:17;;;;;;;;;;;;;;;9.14;96.56;100666.16;1634305;86;21122;-79
2021/11/13 01:11:43;;;;;;;;;;;;;;;9.22;96.37;100662.36;1636907;87;20403;-76
2021/11/13 01:14:08;;;;;;;;;;;;;;;9.26;96.01;100657.17;1634098;86;20518;-78
2021/11/13 01:16:34;;;;;;;;;;;;;;;9.28;95.94;100655.23;1634741;86;20766;-76
2021/11/13 01:19:00;;;;;;;;;;;;;;;9.28;95.71;100657.87;1634987;86;20172;-76
2021/11/13 01:21:26;;;;;;;;;;;;;;;9.31;95.62;100662.87;1633525;87;21163;-76
2021/11/13 01:23:51;;;;;;;;;;;;;;;9.37;95.59;100659.33;1630783;86;20183;-76
2021/11/13 01:26:17;;;;;;;;;;;;;;;9.36;95.42;100657.19;1636887;87;20222;-77
2021/11/13 01:28:43;;;;;;;;;;;;;;;9.35;94.89;100656.83;1635777;86;20174;-76
2021/11/13 01:31:08;;;;;;;;;;;;;;;9.26;94.98;100651.91;1639331;86;20149;-76
2021/11/13 01:33:35;;;;;;;;;;;;;;;9.27;94.93;100649.60;1633708;87;21161;-76
2021/11/13 01:36:01;;;;;;;;;;;;;;;9.35;94.84;100646.29;1634365;86;20144;-76
2021/11/13 01:38:26;;;;;;;;;;;;;;;9.34;94.91;100640.19;1633139;86;20196;-76
2021/11/13 01:40:52;;;;;;;;;;;;;;;9.31;94.96;100640.47;1635943;86;21214;-76
2021/11/13 01:43:18;;;;;;;;;;;;;;;9.28;95.21;100629.38;1632607;86;20200;-76
2021/11/13 01:45:43;;;;;;;;;;;;;;;9.29;95.15;100634.51;1632050;86;21159;-77
2021/11/13 01:48:09;;;;;;;;;;;;;;;9.26;95.39;100629.51;1641406;85;20162;-77
2021/11/13 01:50:40;;;;;;;;;;;;;;;9.27;95.21;100632.97;1635618;85;20144;-75
2021/11/13 01:53:06;;;;;;;;;;;;;;;9.25;95.32;100627.83;1643970;86;20345;-77
2021/11/13 01:55:35;;;;;;;;;;;;;;;9.26;95.23;100614.16;1636985;85;20520;-76
2021/11/13 01:58:01;;;;;;;;;;;;;;;9.19;95.33;100612.56;1631227;86;20184;-76
2021/11/13 02:00:39;;;;;;;;;;;;;;;9.16;95.14;100610.20;1633797;86;20112;-76
2021/11/13 02:03:04;;;;;;;;;;;;;;;9.14;95.27;100618.73;1637648;86;20168;-76
2021/11/13 02:05:30;;;;;;;;;;;;;;;9.07;95.55;100611.01;1634824;86;20274;-76
2021/11/13 02:07:56;;;;;;;;;;;;;;;8.96;95.72;100615.44;1638741;86;20210;-76
2021/11/13 02:10:22;;;;;;;;;;;;;;;8.88;96.27;100616.56;1637288;86;21157;-76
2021/11/13 02:12:47;;;;;;;;;;;;;;;8.88;96.55;100620.52;1639771;86;20215;-76
2021/11/13 02:15:13;;;;;;;;;;;;;;;8.94;96.36;100612.08;1638353;86;20135;-76
2021/11/13 02:17:39;;;;;;;;;;;;;;;8.92;96.49;100618.47;1638593;86;20143;-76
2021/11/13 02:20:16;;;;;;;;;;;;;;;9.05;96.01;100611.64;1646786;86;20199;-76
2021/11/13 02:22:42;;;;;;;;;;;;;;;9.00;95.95;100609.90;1640768;86;22014;-76
2021/11/13 02:25:07;;;;;;;;;;;;;;;8.91;96.15;100609.72;1643321;86;20521;-77
2021/11/13 02:27:33;;;;;;;;;;;;;;;8.88;96.38;100605.20;1643770;86;20315;-76
2021/11/13 02:29:58;;;;;;;;;;;;;;;8.84;96.60;100609.06;1635849;86;20123;-76
2021/11/13 02:32:24;;;;;;;;;;;;;;;8.85;96.45;100598.40;1637957;85;20148;-76
2021/11/13 02:34:50;;;;;;;;;;;;;;;8.83;96.60;100600.34;1635690;86;21883;-75
2021/11/13 02:37:16;;;;;;;;;;;;;;;8.80;96.71;100605.38;1636779;86;20158;-75
2021/11/13 02:39:43;;;;;;;;;;;;;;;8.82;96.68;100609.69;1637635;86;20189;-76
2021/11/13 02:42:08;;;;;;;;;;;;;;;8.85;96.63;100607.61;1642736;85;20215;-75
2021/11/13 02:44:34;;;;;;;;;;;;;;;8.74;96.98;100602.45;1637047;86;20136;-76
2021/11/13 02:47:00;;;;;;;;;;;;;;;8.72;97.15;100596.50;1639910;85;21144;-75
2021/11/13 02:49:25;;;;;;;;;;;;;;;8.76;96.94;100599.20;1631694;86;20190;-75
2021/11/13 02:51:51;;;;;;;;;;;;;;;8.72;97.17;100598.64;1637071;86;21256;-76
2021/11/13 02:54:16;;;;;;;;;;;;;;;8.73;96.99;100600.78;1635750;86;21201;-75
2021/11/13 02:56:42;;;;;;;;;;;;;;;8.66;97.46;100602.30;1630468;86;20172;-75
2021/11/13 02:59:07;;;;;;;;;;;;;;;8.66;97.29;100595.71;1632965;86;21174;-75
2021/11/13 03:01:33;;;;;;;;;;;;;;;8.59;97.31;100589.66;1633142;86;20149;-76
2021/11/13 03:03:59;;;;;;;;;;;;;;;8.61;97.23;100590.35;1636088;86;20831;-76
2021/11/13 03:06:24;;;;;;;;;;;;;;;8.60;97.36;100582.59;1633874;86;20110;-76
2021/11/13 03:08:50;;;;;;;;;;;;;;;8.71;97.22;100582.48;1633113;87;20187;-75
2021/11/13 03:11:17;;;;;;;;;;;;;;;8.74;96.81;100578.76;1630728;87;21968;-75
2021/11/13 03:13:45;;;;;;;;;;;;;;;8.76;96.83;100590.83;1636693;86;20184;-74
2021/11/13 03:16:11;;;;;;;;;;;;;;;8.87;96.49;100589.90;1631023;87;20529;-75
2021/11/13 03:18:36;;;;;;;;;;;;;;;8.87;96.45;100586.41;1612831;87;20165;-74
2021/11/13 03:21:06;;;;;;;;;;;;;;;8.93;96.12;100592.00;1632590;86;20183;-77
2021/11/13 03:23:33;;;;;;;;;;;;;;;8.94;96.14;100588.38;1634487;87;21365;-74
2021/11/13 03:26:00;;;;;;;;;;;;;;;8.94;95.89;100584.42;1635767;86;20154;-77
2021/11/13 03:28:27;;;;;;;;;;;;;;;8.93;95.87;100583.24;1631565;86;20166;-76
2021/11/13 03:30:53;;;;;;;;;;;;;;;8.94;95.87;100592.33;1637939;87;20199;-76
2021/11/13 03:33:18;;;;;;;;;;;;;;;8.93;95.60;100590.68;1636673;87;20165;-76
2021/11/13 03:35:44;;;;;;;;;;;;;;;8.93;95.56;100590.68;1634254;87;21205;-77
2021/11/13 03:38:12;;;;;;;;;;;;;;;8.96;95.35;100589.09;1631687;87;20335;-77
2021/11/13 03:40:39;;;;;;;;;;;;;;;8.95;95.17;100584.78;1638582;86;20479;-76
2021/11/13 03:43:04;;;;;;;;;;;;;;;8.87;95.35;100591.22;1633002;87;20688;-76
2021/11/13 03:45:30;;;;;;;;;;;;;;;8.83;95.10;100597.70;1633898;86;20118;-75
2021/11/13 03:47:56;;;;;;;;;;;;;;;8.79;95.32;100597.61;1629531;86;21083;-74
2021/11/13 03:50:21;;;;;;;;;;;;;;;8.81;95.26;100602.28;1631910;86;20363;-75
2021/11/13 03:52:47;;;;;;;;;;;;;;;8.82;95.20;100588.12;1624538;86;20466;-75
2021/11/13 03:55:12;;;;;;;;;;;;;;;8.87;95.05;100587.73;1602442;88;20202;-76
2021/11/13 03:57:38;;;;;;;;;;;;;;;8.91;94.76;100581.23;1641782;86;20196;-75
2021/11/13 04:00:05;;;;;;;;;;;;;;;8.87;95.00;100580.69;1649436;86;21090;-75
2021/11/13 04:02:31;;;;;;;;;;;;;;;8.83;95.41;100577.95;1645648;86;20117;-77
2021/11/13 04:04:56;;;;;;;;;;;;;;;8.88;95.40;100573.11;1644572;86;20211;-74
2021/11/13 04:07:22;;;;;;;;;;;;;;;8.87;95.43;100571.46;1642868;86;20136;-75
2021/11/13 04:09:48;;;;;;;;;;;;;;;8.74;95.90;100566.91;1653303;86;20149;-75
2021/11/13 04:12:14;;;;;;;;;;;;;;;8.80;95.86;100562.42;1651353;86;22343;-74
2021/11/13 04:14:41;;;;;;;;;;;;;;;8.81;95.66;100568.05;1647170;86;20496;-75
2021/11/13 04:17:07;;;;;;;;;;;;;;;8.73;96.19;100561.28;1651256;86;20466;-75
2021/11/13 04:19:33;;;;;;;;;;;;;;;8.73;96.05;100562.14;1653090;86;20236;-75
2021/11/13 04:21:58;;;;;;;;;;;;;;;8.76;96.13;100561.02;1645756;86;20505;-76
2021/11/13 04:24:24;;;;;;;;;;;;;;;8.77;96.11;100564.01;1649747;86;21117;-76
2021/11/13 04:26:49;;;;;;;;;;;;;;;8.75;96.07;100560.69;1649525;86;20250;-78
2021/11/13 04:29:15;;;;;;;;;;;;;;;8.73;95.98;100558.65;1641019;86;20153;-74
2021/11/13 04:31:41;;;;;;;;;;;;;;;8.72;96.02;100558.32;1649888;86;20166;-75
2021/11/13 04:34:13;;;;;;;;;;;;;;;8.70;96.15;100554.97;1647991;86;20448;-77
2021/11/13 04:36:38;;;;;;;;;;;;;;;8.61;95.79;100546.91;1647720;84;20123;-75
2021/11/13 04:39:05;;;;;;;;;;;;;;;8.58;96.09;100550.30;1647615;86;20574;-78
2021/11/13 04:41:30;;;;;;;;;;;;;;;8.58;96.16;100553.77;1645873;86;20197;-75
2021/11/13 04:43:56;;;;;;;;;;;;;;;8.67;95.76;100553.92;1643353;86;20143;-77
2021/11/13 04:46:22;;;;;;;;;;;;;;;8.68;95.95;100556.91;1641832;86;21190;-77
2021/11/13 04:48:47;;;;;;;;;;;;;;;8.72;95.88;100554.38;1653448;86;21872;-77
2021/11/13 04:51:13;;;;;;;;;;;;;;;8.71;95.84;100551.38;1647166;86;20169;-78
2021/11/13 04:53:38;;;;;;;;;;;;;;;8.70;95.75;100553.66;1644990;86;20160;-77
2021/11/13 04:56:04;;;;;;;;;;;;;;;8.72;95.62;100557.00;1646046;86;20820;-77
2021/11/13 04:58:29;;;;;;;;;;;;;;;8.69;95.50;100553.32;1648481;85;20223;-77
2021/11/13 05:00:55;;;;;;;;;;;;;;;8.55;95.49;100550.57;1641687;86;21093;-75
2021/11/13 05:03:20;;;;;;;;;;;;;;;8.66;95.26;100548.33;1645755;86;20230;-77
2021/11/13 05:05:46;;;;;;;;;;;;;;;8.64;95.17;100552.41;1647246;85;20171;-79
2021/11/13 05:08:12;;;;;;;;;;;;;;;8.60;95.21;100546.55;1645205;86;20502;-79
2021/11/13 05:10:37;;;;;;;;;;;;;;;8.61;95.51;100550.86;1643788;85;20259;-78
2021/11/13 05:13:03;;;;;;;;;;;;;;;8.68;95.42;100556.91;1646931;85;21107;-77
2021/11/13 05:15:28;;;;;;;;;;;;;;;8.68;95.28;100551.64;1644209;85;20133;-77
2021/11/13 05:17:54;;;;;;;;;;;;;;;8.70;95.28;100545.75;1642349;86;20140;-78
2021/11/13 05:20:20;;;;;;;;;;;;;;;8.69;95.34;100549.37;1651054;86;20455;-77
2021/11/13 05:22:46;;;;;;;;;;;;;;;8.72;95.26;100553.05;1640851;85;21236;-76
2021/11/13 05:25:14;;;;;;;;;;;;;;;8.67;95.24;100553.45;1639680;85;21991;-78
2021/11/13 05:27:40;;;;;;;;;;;;;;;8.77;94.74;100550.34;1643865;86;20198;-77
2021/11/13 05:30:07;;;;;;;;;;;;;;;8.74;94.62;100555.06;1648413;86;20198;-77
2021/11/13 05:32:32;;;;;;;;;;;;;;;8.65;94.78;100559.31;1651643;86;20901;-78
2021/11/13 05:34:58;;;;;;;;;;;;;;;8.67;94.83;100563.13;1646022;86;20157;-76
2021/11/13 05:37:23;;;;;;;;;;;;;;;8.55;95.33;100561.92;1646005;85;21099;-77
2021/11/13 05:39:49;;;;;;;;;;;;;;;8.61;94.77;100564.02;1614311;88;20267;-78
2021/11/13 05:42:15;;;;;;;;;;;;;;;8.69;94.48;100569.13;1617668;87;20153;-77
2021/11/13 05:44:41;;;;;;;;;;;;;;;8.50;94.73;100565.45;1619415;88;20163;-77
2021/11/13 05:47:07;;;;;;;;;;;;;;;8.53;94.72;100569.13;1624600;87;20222;-77
2021/11/13 05:49:33;;;;;;;;;;;;;;;8.57;94.91;100561.30;1627702;86;21087;-77
2021/11/13 05:51:58;;;;;;;;;;;;;;;8.67;94.65;100561.36;1630313;86;20309;-77
2021/11/13 05:54:24;;;;;;;;;;;;;;;8.59;94.92;100563.34;1627444;86;20220;-77
2021/11/13 05:56:49;;;;;;;;;;;;;;;8.60;94.74;100547.88;1627355;86;20141;-77
2021/11/13 05:59:15;;;;;;;;;;;;;;;8.66;94.45;100554.91;1646176;86;20159;-77
2021/11/13 06:01:41;;;;;;;;;;;;;;;8.63;94.33;100564.72;1645742;86;21161;-77
2021/11/13 06:04:07;;;;;;;;;;;;;;;8.68;94.29;100564.81;1645208;85;20811;-77
2021/11/13 06:06:32;;;;;;;;;;;;;;;8.73;94.15;100567.41;1642068;86;20449;-77
2021/11/13 06:08:58;;;;;;;;;;;;;;;8.72;94.10;100562.27;1645100;86;20458;-75
2021/11/13 06:11:24;;;;;;;;;;;;;;;8.78;93.82;100560.42;1648999;86;20161;-77
2021/11/13 06:13:49;;;;;;;;;;;;;;;8.82;93.79;100563.11;1646531;85;21059;-77
2021/11/13 06:16:15;;;;;;;;;;;;;;;8.80;93.60;100569.01;1626972;86;20499;-77
2021/11/13 06:18:40;;;;;;;;;;;;;;;8.85;93.79;100574.70;1650815;85;20140;-78
2021/11/13 06:21:06;;;;;;;;;;;;;;;8.83;93.61;100580.59;1641115;86;20125;-78
2021/11/13 06:23:33;;;;;;;;;;;;;;;8.77;93.89;100573.22;1640951;86;20284;-77
2021/11/13 06:25:59;;;;;;;;;;;;;;;8.77;94.11;100571.91;1646620;86;21097;-78
2021/11/13 06:28:24;;;;;;;;;;;;;;;8.71;94.07;100565.86;1643219;86;20398;-77
2021/11/13 06:30:50;;;;;;;;;;;;;;;8.70;94.23;100564.18;1645752;86;20262;-77
2021/11/13 06:33:16;;;;;;;;;;;;;;;8.75;93.93;100564.64;1645416;86;20510;-77
2021/11/13 06:35:42;;;;;;;;;;;;;;;8.73;94.21;100558.65;1646263;85;20191;-78
2021/11/13 06:38:08;;;;;;;;;;;;;;;8.73;93.84;100559.97;1643905;85;21017;-77
2021/11/13 06:40:37;;;;;;;;;;;;;;;8.73;93.66;100563.45;1639733;86;20260;-79
2021/11/13 06:43:03;;;;;;;;;;;;;;;8.75;93.49;100560.69;1638945;86;20152;-77
2021/11/13 06:45:29;;;;;;;;;;;;;;;8.84;93.44;100573.05;1645847;86;20806;-76
2021/11/13 06:47:55;;;;;;;;;;;;;;;8.91;93.09;100582.55;1649478;85;20447;-78
2021/11/13 06:50:21;;;;;;;;;;;;;;;8.92;93.07;100590.32;1661593;84;21099;-76
2021/11/13 06:52:47;;;;;;;;;;;;;;;8.90;93.00;100592.73;1663184;84;20243;-75
2021/11/13 06:55:13;;;;;;;;;;;;;;;8.96;92.89;100583.83;1662356;84;20265;-78
2021/11/13 06:57:40;;;;;;;;;;;;;;;8.92;92.89;100583.73;1663275;84;20709;-80
2021/11/13 07:00:09;;;;;;;;;;;;;;;9.10;92.55;100606.78;1662650;84;20200;-76
2021/11/13 07:02:35;;;;;;;;;;;;;;;9.15;92.36;100603.25;1664557;84;21931;-77
2021/11/13 07:05:01;;;;;;;;;;;;;;;9.21;92.14;100611.93;1662976;84;20208;-77
2021/11/13 07:07:26;;;;;;;;;;;;;;;9.24;91.64;100614.30;1663037;84;20294;-78
2021/11/13 07:09:52;;;;;;;;;;;;;;;9.27;91.58;100623.25;1659916;84;20156;-77
2021/11/13 07:12:17;;;;;;;;;;;;;;;9.33;91.41;100635.88;1666672;84;20445;-77
2021/11/13 07:14:44;;;;;;;;;;;;;;;9.42;91.02;100638.69;1661703;85;21118;-74
2021/11/13 07:17:09;;;;;;;;;;;;;;;9.48;90.87;100642.92;1664517;84;20449;-77
2021/11/13 07:19:35;;;;;;;;;;;;;;;9.48;90.46;100653.97;1664387;84;20136;-77
2021/11/13 07:22:04;;;;;;;;;;;;;;;9.50;90.26;100633.56;1664049;84;20770;-77
2021/11/13 07:24:30;;;;;;;;;;;;;;;9.43;90.42;100617.93;1666864;85;20504;-75
2021/11/13 07:26:56;;;;;;;;;;;;;;;9.48;90.39;100603.88;1667822;85;21099;-76
2021/11/13 07:29:27;;;;;;;;;;;;;;;9.39;90.55;100596.30;1665633;85;20802;-76
2021/11/13 07:31:53;;;;;;;;;;;;;;;9.42;90.43;100591.24;1668247;85;20166;-77
2021/11/13 07:34:18;;;;;;;;;;;;;;;9.32;90.85;100590.75;1666913;85;21459;-76
2021/11/13 07:36:44;;;;;;;;;;;;;;;9.33;90.85;100581.85;1671554;84;20147;-76
2021/11/13 07:39:09;;;;;;;;;;;;;;;9.36;90.84;100573.34;1666202;84;21104;-76
2021/11/13 07:41:35;;;;;;;;;;;;;;;9.29;90.85;100567.30;1667003;85;20133;-76
2021/11/13 07:44:01;;;;;;;;;;;;;;;9.27;91.02;100563.95;1664422;85;20765;-76
2021/11/13 07:46:26;;;;;;;;;;;;;;;9.27;91.18;100563.95;1666668;85;20182;-76
2021/11/13 07:48:52;;;;;;;;;;;;;;;9.28;91.16;100553.77;1661466;85;20151;-76
2021/11/13 07:51:20;;;;;;;;;;;;;;;9.28;91.24;100560.36;1653663;86;21120;-76
2021/11/13 07:53:47;;;;;;;;;;;;;;;9.24;91.37;100562.09;1657141;85;21141;-76
2021/11/13 07:56:12;;;;;;;;;;;;;;;9.27;91.44;100560.00;1657868;85;20132;-76
2021/11/13 07:58:38;;;;;;;;;;;;;;;9.33;91.42;100563.40;1653189;85;20185;-73
2021/11/13 08:01:03;;;;;;;;;;;;;;;9.42;91.15;100557.80;1653798;85;20161;-75
2021/11/13 08:03:29;;;;;;;;;;;;;;;9.39;91.01;100556.75;1651631;85;21122;-74
2021/11/13 08:05:55;;;;;;;;;;;;;;;9.41;90.89;100552.66;1658275;85;20168;-76
2021/11/13 08:08:20;;;;;;;;;;;;;;;9.45;90.81;100554.88;1658953;85;20604;-75
2021/11/13 08:10:46;;;;;;;;;;;;;;;9.46;90.85;100557.03;1659047;85;20135;-75
2021/11/13 08:13:13;;;;;;;;;;;;;;;9.39;90.85;100557.25;1657768;85;20235;-75
2021/11/13 08:15:40;;;;;;;;;;;;;;;9.45;90.71;100550.93;1656398;85;21881;-77
2021/11/13 08:18:05;;;;;;;;;;;;;;;9.37;90.75;100551.27;1650853;85;20132;-76
2021/11/13 08:20:31;;;;;;;;;;;;;;;9.41;90.60;100544.76;1653670;85;20226;-76
2021/11/13 08:22:57;;;;;;;;;;;;;;;9.41;90.55;100538.16;1656366;85;20194;-76
2021/11/13 08:25:23;;;;;;;;;;;;;;;9.37;90.68;100545.99;1656693;85;20198;-74
2021/11/13 08:27:50;;;;;;;;;;;;;;;9.44;90.43;100537.89;1658381;85;21138;-77
2021/11/13 08:30:16;;;;;;;;;;;;;;;9.49;90.37;100538.30;1650994;85;20173;-76
2021/11/13 08:32:41;;;;;;;;;;;;;;;9.45;90.11;100543.02;1656462;85;20256;-75
2021/11/13 08:35:07;;;;;;;;;;;;;;;9.52;90.20;100547.24;1658984;85;20190;-75
2021/11/13 08:37:33;;;;;;;;;;;;;;;9.53;90.05;100554.19;1658463;85;20244;-75
2021/11/13 08:39:59;;;;;;;;;;;;;;;9.60;89.88;100554.45;1658560;85;21193;-76
2021/11/13 08:42:24;;;;;;;;;;;;;;;9.67;89.50;100548.48;1657403;85;20556;-77
2021/11/13 08:44:51;;;;;;;;;;;;;;;9.69;89.09;100545.23;1656192;85;20210;-76
2021/11/13 08:47:17;;;;;;;;;;;;;;;9.59;89.33;100543.09;1655700;85;20552;-76
2021/11/13 08:49:44;;;;;;;;;;;;;;;9.56;89.73;100542.05;1654002;85;20247;-77
2021/11/13 08:52:12;;;;;;;;;;;;;;;9.62;89.88;100545.44;1648918;85;21120;-77
2021/11/13 08:54:41;;;;;;;;;;;;;;;9.67;89.63;100537.94;1647155;85;20133;-79
2021/11/13 08:57:08;;;;;;;;;;;;;;;9.78;89.37;100541.41;1644790;85;20567;-78
2021/11/13 08:59:34;;;;;;;;;;;;;;;9.81;89.12;100548.53;1644865;85;20349;-76
2021/11/13 09:02:03;;;;;;;;;;;;;;;9.89;88.80;100549.97;1643766;85;20172;-76
2021/11/13 09:04:29;;;;;;;;;;;;;;;9.93;88.29;100563.73;1650441;85;21803;-77
2021/11/13 09:06:54;;;;;;;;;;;;;;;10.01;88.38;100555.11;1650054;85;20129;-77
2021/11/13 09:09:20;;;;;;;;;;;;;;;10.13;87.97;100558.39;1650709;85;20469;-75
2021/11/13 09:11:48;;;;;;;;;;;;;;;10.19;87.49;100555.18;1649616;85;20234;-76
2021/11/13 09:14:14;;;;;;;;;;;;;;;10.18;87.12;100558.81;1648135;85;20202;-77
2021/11/13 09:16:42;;;;;;;;;;;;;;;10.18;86.45;100559.63;1648729;85;21434;-76
2021/11/13 09:19:08;;;;;;;;;;;;;;;10.21;86.47;100563.80;1650471;85;20197;-79
2021/11/13 09:21:34;;;;;;;;;;;;;;;10.26;86.05;100556.28;1656379;85;20824;-76
2021/11/13 09:24:00;;;;;;;;;;;;;;;10.24;86.03;100557.74;1652912;85;20287;-76
2021/11/13 09:26:26;;;;;;;;;;;;;;;10.27;85.75;100563.23;1650145;85;20189;-77
2021/11/13 09:28:52;;;;;;;;;;;;;;;10.24;85.85;100555.60;1649253;85;21165;-77
2021/11/13 09:31:17;;;;;;;;;;;;;;;10.29;85.52;100545.43;1650607;85;20214;-77
2021/11/13 09:33:43;;;;;;;;;;;;;;;10.25;85.42;100530.84;1649440;85;20522;-79
2021/11/13 09:36:09;;;;;;;;;;;;;;;10.27;85.05;100521.00;1646630;85;20184;-76
2021/11/13 09:38:37;;;;;;;;;;;;;;;10.25;84.94;100520.29;1649409;85;20160;-79
2021/11/13 09:41:04;;;;;;;;;;;;;;;10.29;84.57;100508.48;1646666;85;21212;-76
2021/11/13 09:43:30;;;;;;;;;;;;;;;10.26;84.89;100514.05;1649790;85;20441;-76
2021/11/13 09:45:56;;;;;;;;;;;;;;;10.36;84.74;100504.32;1647557;85;20263;-77
2021/11/13 09:48:22;;;;;;;;;;;;;;;10.28;84.46;100511.27;1646402;85;20162;-76
2021/11/13 09:50:50;;;;;;;;;;;;;;;10.43;84.42;100507.70;1645705;86;20160;-77
2021/11/13 09:53:16;;;;;;;;;;;;;;;10.31;84.32;100497.77;1646368;85;21124;-76
2021/11/13 09:55:42;;;;;;;;;;;;;;;10.34;83.71;100507.58;1646448;86;20202;-76
2021/11/13 09:58:07;;;;;;;;;;;;;;;10.36;83.88;100505.64;1646664;86;20137;-76
2021/11/13 10:00:36;;;;;;;;;;;;;;;10.37;83.82;100507.78;1645363;85;20611;-77
2021/11/13 10:03:02;;;;;;;;;;;;;;;10.36;83.62;100498.19;1643764;85;20205;-76
2021/11/13 10:05:27;;;;;;;;;;;;;;;10.24;84.07;100493.58;1645270;85;21104;-76
2021/11/13 10:07:53;;;;;;;;;;;;;;;10.44;83.52;100493.03;1652839;85;20166;-76
2021/11/13 10:10:32;;;;;;;;;;;;;;;10.46;83.16;100502.13;1643212;85;20447;-76
2021/11/13 10:12:57;;;;;;;;;;;;;;;10.58;83.23;100500.92;1650707;85;20194;-76
2021/11/13 10:15:36;;;;;;;;;;;;;;;10.64;82.61;100499.01;1646431;86;20138;-76
2021/11/13 10:18:13;;;;;;;;;;;;;;;10.72;82.22;100503.08;1647415;85;22090;-77
2021/11/13 10:20:42;;;;;;;;;;;;;;;10.71;81.61;100500.09;1645112;86;20173;-77
2021/11/13 10:23:08;;;;;;;;;;;;;;;10.81;81.32;100496.55;1650908;86;20177;-77
2021/11/13 10:25:34;;;;;;;;;;;;;;;10.84;81.09;100493.62;1647435;86;20957;-76
2021/11/13 10:28:14;;;;;;;;;;;;;;;10.86;80.87;100487.69;1635176;85;20111;-80
2021/11/13 10:30:40;;;;;;;;;;;;;;;10.83;80.79;100484.02;1647426;86;22019;-80
2021/11/13 10:33:06;;;;;;;;;;;;;;;11.01;80.00;100478.26;1639115;86;20215;-79
2021/11/13 10:35:50;;;;;;;;;;;;;;;10.97;79.60;100480.88;1644350;86;21599;-80
2021/11/13 10:38:20;;;;;;;;;;;;;;;10.93;79.67;100482.97;1645239;85;20209;-81
2021/11/13 10:40:55;;;;;;;;;;;;;;;11.01;79.61;100476.94;1644560;85;20920;-79
2021/11/13 10:43:22;;;;;;;;;;;;;;;10.84;79.90;100477.77;1642514;85;21110;-80
2021/11/13 10:46:02;;;;;;;;;;;;;;;10.90;79.72;100482.45;1648075;84;37828;-81
2021/11/13 10:48:27;;;;;;;;;;;;;;;11.00;79.45;100483.69;1644975;86;20207;-81
2021/11/13 10:51:02;;;;;;;;;;;;;;;11.00;79.19;100489.83;1629796;86;20121;-80
2021/11/13 10:53:31;;;;;;;;;;;;;;;11.14;78.66;100477.40;1628636;86;20205;-80
2021/11/13 10:56:20;;;;;;;;;;;;;;;11.22;78.50;100477.14;1626995;86;21136;-79
2021/11/13 10:58:52;;;;;;;;;;;;;;;11.31;78.12;100478.84;1632015;86;20587;-79
2021/11/13 11:01:45;;;;;;;;;;;;;;;11.20;77.80;100476.44;1627656;86;20174;-79
2021/11/13 11:04:16;;;;;;;;;;;;;;;11.16;77.48;100473.78;1641905;86;21266;-79
2021/11/13 11:06:45;;;;;;;;;;;;;;;11.28;77.27;100472.57;1635139;86;20271;-79
2021/11/13 11:09:22;;;;;;;;;;;;;;;11.23;77.08;100464.24;1629169;87;21181;-80
2021/11/13 11:11:49;;;;;;;;;;;;;;;11.18;77.38;100461.23;1629134;86;20186;-80
2021/11/13 11:14:18;;;;;;;;;;;;;;;11.20;77.27;100457.94;1626951;86;20229;-80
2021/11/13 11:16:46;;;;;;;;;;;;;;;11.12;77.50;100466.16;1627613;86;20263;-78
2021/11/13 11:19:21;;;;;;;;;;;;;;;11.20;77.19;100464.55;1628257;86;20208;-79
2021/11/13 11:21:51;;;;;;;;;;;;;;;11.27;77.20;100462.97;1630763;86;21352;-78
2021/11/13 11:24:25;;;;;;;;;;;;;;;11.19;76.99;100462.91;1627578;86;20147;-77
2021/11/13 11:27:03;;;;;;;;;;;;;;;10.97;77.55;100463.70;1630357;86;20173;-78
2021/11/13 11:29:30;;;;;;;;;;;;;;;11.14;77.49;100464.19;1629455;86;20206;-77
2021/11/13 11:31:59;;;;;;;;;;;;;;;11.08;77.53;100459.50;1630910;86;20389;-78
2021/11/13 11:34:36;;;;;;;;;;;;;;;10.89;77.60;100451.72;1627627;86;21106;-78
2021/11/13 11:37:14;;;;;;;;;;;;;;;10.88;77.33;100454.86;1629139;86;20530;-78
2021/11/13 11:39:41;;;;;;;;;;;;;;;10.89;77.65;100451.25;1631771;87;20653;-78
2021/11/13 11:42:06;;;;;;;;;;;;;;;10.89;77.73;100453.03;1629032;86;20186;-78
2021/11/13 11:44:33;;;;;;;;;;;;;;;10.89;77.67;100457.00;1627955;87;21558;-78
2021/11/13 11:46:59;;;;;;;;;;;;;;;10.96;77.54;100452.78;1631745;86;21086;-79
2021/11/13 11:49:25;;;;;;;;;;;;;;;11.10;77.35;100458.03;1633686;86;20140;-77
2021/11/13 11:51:50;;;;;;;;;;;;;;;11.06;77.20;100451.38;1653424;85;20377;-78
2021/11/13 11:54:17;;;;;;;;;;;;;;;11.13;77.07;100445.33;1652155;85;20162;-77
2021/11/13 11:56:43;;;;;;;;;;;;;;;11.06;77.06;100442.98;1654876;85;20603;-79
2021/11/13 11:59:08;;;;;;;;;;;;;;;10.95;77.05;100448.00;1650520;85;21086;-78
2021/11/13 12:01:37;;;;;;;;;;;;;;;11.02;77.25;100449.53;1650500;85;20659;-78
2021/11/13 12:04:17;;;;;;;;;;;;;;;11.01;76.79;100446.55;1651412;85;20201;-78
2021/11/13 12:06:54;;;;;;;;;;;;;;;11.02;76.95;100450.86;1650801;85;20217;-78
2021/11/13 12:09:20;;;;;;;;;;;;;;;11.06;77.01;100444.30;1650954;86;20321;-76
2021/11/13 12:11:47;;;;;;;;;;;;;;;10.98;76.97;100450.81;1652936;85;21010;-78
2021/11/13 12:14:36;;;;;;;;;;;;;;;11.10;76.69;100442.99;1653865;85;20213;-80
2021/11/13 12:17:21;;;;;;;;;;;;;;;11.10;76.61;100449.60;1651036;85;20147;-76
2021/11/13 12:20:10;;;;;;;;;;;;;;;11.16;76.41;100439.42;1649460;85;21058;-76
2021/11/13 12:22:42;;;;;;;;;;;;;;;11.14;76.45;100445.69;1651346;85;20301;-77
2021/11/13 12:25:26;;;;;;;;;;;;;;;11.14;76.01;100443.04;1648361;85;21127;-77
2021/11/13 12:28:13;;;;;;;;;;;;;;;11.07;75.97;100440.66;1648124;85;20347;-78
2021/11/13 12:30:50;;;;;;;;;;;;;;;11.10;75.75;100440.85;1649984;85;20230;-76
2021/11/13 12:33:29;;;;;;;;;;;;;;;11.12;75.76;100431.80;1652576;85;20123;-76
2021/11/13 12:36:04;;;;;;;;;;;;;;;11.09;76.08;100430.78;1649700;86;20110;-76
2021/11/13 12:38:39;;;;;;;;;;;;;;;11.13;75.52;100434.76;1650464;85;22603;-75
2021/11/13 12:41:11;;;;;;;;;;;;;;;11.16;75.39;100427.53;1650096;85;20169;-75
2021/11/13 12:43:59;;;;;;;;;;;;;;;11.18;75.13;100429.52;1649817;85;20888;-78